Roseann, Pennsylvania
Current Conditions -  °F | °C
As of 3:15 AM on Thursday 27 Nov 2014 (Local Time) from KUNV Reporting Station
Overcast Overcast  
Wind Chill: 30°   Ceiling: 3600
Heat Index: 30°   Visibility: 10mi
Dew Point: 28°   Wind: 0mph
Humidity: 93%   Direction: NA
Pressure: 29.96"   Gusts: NA
Location:  40.7567°N, 77.488°W
Report Text: KUNV 270815Z AUTO 00000KT 10SM OVC036 M01/M02 A2996 RMK AO2 T10101020
Loading
Personal Weather Stations






























Interactive Weather Map New forecast layout! Learn more

10-Day Weather Forecast

Advertisements
Track Severe Weather on mobile